Terminal Aerodrome Forecast
Issued by NWS

Home | Current Version | Previous Version | Graphics & Text | Print | Product List | Glossary On
Versions: 1 2 3 4 5 6 7 8 9 10 11 12 13
764
FTUS43 KICT 181703 AAA
TAFHUT
TAF AMD
KHUT 181703Z 1817/1912 32017G22KT P6SM SCT050 BKN100
     FM181800 33022G30KT P6SM SCT100
     FM182300 33013KT P6SM SKC
     FM190000 31005KT P6SM SKC=

USA.gov is the U.S. government's official web portal to all federal, state and local government web resources and services.